TimeEDT,TemperatureF,Dew PointF,Humidity,Sea Level PressureIn,VisibilityMPH,Wind Direction,Wind SpeedMPH,Gust SpeedMPH,PrecipitationIn,Events,Conditions,WindDirDegrees,DateUTC
12:15 AM,69.8,69.8,100,30.25,5.0,Calm,Calm,-,N/A,,Clear,0,2013-09-11 04:15:00
12:35 AM,69.8,69.8,100,30.25,5.0,Calm,Calm,-,N/A,,Clear,0,2013-09-11 04:35:00
12:55 AM,69.8,69.8,100,30.25,4.0,Calm,Calm,-,N/A,,Clear,0,2013-09-11 04:55:00
1:15 AM,69.8,68.0,94,30.24,4.0,Calm,Calm,-,N/A,,Clear,0,2013-09-11 05:15:00
1:35 AM,69.8,68.0,94,30.24,5.0,Calm,Calm,-,N/A,,Clear,0,2013-09-11 05:35:00
1:59 AM,68.0,66.2,94,30.24,5.0,Calm,Calm,-,N/A,,Clear,0,2013-09-11 05:59:00
2:15 AM,68.0,66.2,94,30.24,5.0,Calm,Calm,-,N/A,,Clear,0,2013-09-11 06:15:00
2:36 AM,66.2,66.2,100,30.24,5.0,Calm,Calm,-,N/A,,Clear,0,2013-09-11 06:36:00
2:59 AM,66.2,66.2,100,30.23,5.0,SSW,8.1,-,N/A,,Clear,200,2013-09-11 06:59:00
3:15 AM,66.2,66.2,100,30.23,1.8,Calm,Calm,-,N/A,,Mostly Cloudy,0,2013-09-11 07:15:00
3:35 AM,66.2,66.2,100,30.23,5.0,West,10.4,-,N/A,,Scattered Clouds,280,2013-09-11 07:35:00
3:56 AM,66.2,66.2,100,30.23,4.0,WNW,8.1,-,N/A,,Scattered Clouds,300,2013-09-11 07:56:00
4:15 AM,64.4,64.4,100,30.23,1.8,Calm,Calm,-,N/A,,Clear,0,2013-09-11 08:15:00
4:35 AM,64.4,64.4,100,30.23,0.5,Calm,Calm,-,N/A,,Mostly Cloudy,0,2013-09-11 08:35:00
4:57 AM,64.4,64.4,100,30.22,0.5,Calm,Calm,-,N/A,Fog,Fog,0,2013-09-11 08:57:00
5:17 AM,64.4,64.4,100,30.23,2.5,West,10.4,-,N/A,,Mostly Cloudy,280,2013-09-11 09:17:00
5:35 AM,64.4,64.4,100,30.23,3.0,WNW,8.1,-,N/A,,Mostly Cloudy,300,2013-09-11 09:35:00
5:55 AM,64.4,64.4,100,30.24,1.0,Calm,Calm,-,N/A,,Overcast,0,2013-09-11 09:55:00
6:15 AM,64.4,64.4,100,30.24,5.0,Calm,Calm,-,N/A,,Scattered Clouds,0,2013-09-11 10:15:00
6:35 AM,64.4,64.4,100,30.24,5.0,Calm,Calm,-,N/A,,Scattered Clouds,0,2013-09-11 10:35:00
6:55 AM,64.4,62.6,94,30.25,1.8,Calm,Calm,-,N/A,,Scattered Clouds,0,2013-09-11 10:55:00
7:15 AM,62.8,62.6,99,30.25,0.2,South,4.6,-,N/A,Fog,Fog,190,2013-09-11 11:15:00
7:35 AM,63.7,63.5,99,30.25,4.0,NNW,3.5,-,N/A,,Scattered Clouds,340,2013-09-11 11:35:00
7:55 AM,64.8,64.4,99,30.26,5.0,West,5.8,-,N/A,,Scattered Clouds,280,2013-09-11 11:55:00
8:15 AM,66.2,65.3,97,30.26,4.0,West,3.5,-,N/A,,Mostly Cloudy,260,2013-09-11 12:15:00
8:35 AM,66.6,65.7,97,30.26,4.0,WNW,8.1,-,N/A,,Overcast,300,2013-09-11 12:35:00
8:55 AM,69.1,67.1,93,30.26,5.0,West,9.2,-,N/A,,Overcast,280,2013-09-11 12:55:00
9:15 AM,69.8,67.3,92,30.26,7.0,West,10.4,-,N/A,,Overcast,280,2013-09-11 13:15:00
9:35 AM,70.5,67.8,91,30.26,7.0,Calm,Calm,-,N/A,,Mostly Cloudy,0,2013-09-11 13:35:00
9:55 AM,71.4,68.4,90,30.26,7.0,Calm,Calm,-,N/A,,Scattered Clouds,0,2013-09-11 13:55:00
10:15 AM,73.4,68.2,84,30.26,10.0,Calm,Calm,-,N/A,,Mostly Cloudy,0,2013-09-11 14:15:00
10:35 AM,73.9,67.6,81,30.26,10.0,Calm,Calm,-,N/A,,Overcast,0,2013-09-11 14:35:00
10:55 AM,76.1,67.6,75,30.26,10.0,Calm,Calm,-,N/A,,Mostly Cloudy,0,2013-09-11 14:55:00
11:05 AM,77.0,69.8,78,30.26,10.0,Calm,Calm,-,N/A,,Mostly Cloudy,0,2013-09-11 15:05:00
11:15 AM,78.4,68.7,72,30.25,10.0,Calm,Calm,-,N/A,,Mostly Cloudy,0,2013-09-11 15:15:00
11:25 AM,78.8,68.0,69,30.25,10.0,Calm,Calm,-,N/A,,Overcast,0,2013-09-11 15:25:00
11:35 AM,78.6,67.1,68,30.25,10.0,Calm,Calm,-,N/A,,Mostly Cloudy,0,2013-09-11 15:35:00
11:55 AM,77.9,67.8,71,30.24,10.0,Calm,Calm,-,N/A,,Overcast,0,2013-09-11 15:55:00
12:05 PM,78.8,66.2,65,30.24,10.0,Calm,Calm,-,N/A,,Overcast,0,2013-09-11 16:05:00
12:15 PM,78.3,68.4,71,30.24,10.0,Calm,Calm,-,N/A,,Overcast,0,2013-09-11 16:15:00
12:26 PM,78.8,69.8,74,30.24,10.0,Calm,Calm,-,N/A,,Mostly Cloudy,0,2013-09-11 16:26:00
12:35 PM,78.4,69.3,73,30.24,10.0,Calm,Calm,-,N/A,,Mostly Cloudy,0,2013-09-11 16:35:00
12:45 PM,78.8,69.8,74,30.23,10.0,Calm,Calm,-,N/A,,Overcast,0,2013-09-11 16:45:00
12:55 PM,79.9,70.0,72,30.23,10.0,Calm,Calm,-,N/A,,Mostly Cloudy,0,2013-09-11 16:55:00
1:15 PM,80.6,69.6,69,30.22,10.0,SW,3.5,-,N/A,,Overcast,220,2013-09-11 17:15:00
1:35 PM,80.6,69.4,69,30.22,10.0,Calm,Calm,-,N/A,,Mostly Cloudy,0,2013-09-11 17:35:00
1:55 PM,83.1,69.8,64,30.21,10.0,Calm,Calm,-,N/A,,Mostly Cloudy,0,2013-09-11 17:55:00
2:15 PM,84.6,69.4,60,30.19,10.0,South,6.9,-,N/A,,Scattered Clouds,170,2013-09-11 18:15:00
2:35 PM,85.3,68.5,57,30.18,10.0,SW,5.8,-,N/A,,Clear,220,2013-09-11 18:35:00
2:55 PM,84.6,68.4,58,30.17,10.0,Calm,Calm,-,N/A,,Clear,0,2013-09-11 18:55:00
3:15 PM,85.3,68.2,56,30.17,10.0,SSW,3.5,-,N/A,,Clear,200,2013-09-11 19:15:00
3:35 PM,84.7,68.2,57,30.16,10.0,South,3.5,-,N/A,,Scattered Clouds,190,2013-09-11 19:35:00
3:55 PM,85.5,68.4,56,30.15,10.0,West,4.6,-,N/A,,Scattered Clouds,270,2013-09-11 19:55:00
4:15 PM,84.0,68.2,59,30.15,10.0,South,4.6,-,N/A,,Mostly Cloudy,180,2013-09-11 20:15:00
4:35 PM,83.7,69.3,62,30.15,10.0,Calm,Calm,-,0.03,,Mostly Cloudy,0,2013-09-11 20:35:00
4:55 PM,84.4,69.8,61,30.14,10.0,SSW,3.5,-,0.03,,Scattered Clouds,200,2013-09-11 20:55:00
5:15 PM,83.7,69.6,62,30.14,10.0,SW,3.5,-,N/A,,Clear,230,2013-09-11 21:15:00
5:35 PM,82.9,70.0,65,30.14,10.0,SW,3.5,-,N/A,,Clear,230,2013-09-11 21:35:00
5:55 PM,82.8,69.8,65,30.13,10.0,Calm,Calm,-,N/A,,Clear,0,2013-09-11 21:55:00
6:15 PM,82.4,69.8,66,30.14,10.0,Calm,Calm,-,N/A,,Clear,0,2013-09-11 22:15:00
6:35 PM,81.5,71.6,72,30.14,10.0,Calm,Calm,-,N/A,,Scattered Clouds,0,2013-09-11 22:35:00
6:55 PM,81.7,71.4,71,30.14,10.0,Calm,Calm,-,N/A,,Mostly Cloudy,0,2013-09-11 22:55:00
7:15 PM,80.4,71.1,73,30.14,10.0,Calm,Calm,-,N/A,,Scattered Clouds,0,2013-09-11 23:15:00
7:35 PM,79.3,70.7,75,30.14,10.0,Calm,Calm,-,N/A,,Clear,0,2013-09-11 23:35:00
8:15 PM,77.0,71.6,83,30.14,10.0,Calm,Calm,-,N/A,,Clear,0,2013-09-12 00:15:00
8:35 PM,77.0,71.6,83,30.15,10.0,Calm,Calm,-,N/A,,Clear,0,2013-09-12 00:35:00
8:56 PM,77.0,71.6,83,30.15,10.0,Calm,Calm,-,N/A,,Clear,0,2013-09-12 00:56:00
9:15 PM,77.0,69.8,78,30.15,10.0,SSW,3.5,-,N/A,,Scattered Clouds,210,2013-09-12 01:15:00
9:35 PM,75.2,71.6,89,30.15,10.0,Calm,Calm,-,N/A,,Scattered Clouds,0,2013-09-12 01:35:00
9:55 PM,73.4,71.6,94,30.14,10.0,Calm,Calm,-,N/A,,Scattered Clouds,0,2013-09-12 01:55:00
10:15 PM,73.4,71.6,94,30.14,10.0,Calm,Calm,-,N/A,,Clear,0,2013-09-12 02:15:00
10:35 PM,73.4,71.6,94,30.14,10.0,Calm,Calm,-,N/A,,Clear,0,2013-09-12 02:35:00
10:55 PM,73.4,71.6,94,30.14,7.0,Calm,Calm,-,N/A,,Scattered Clouds,0,2013-09-12 02:55:00
11:15 PM,71.6,71.6,100,30.14,5.0,Calm,Calm,-,N/A,,Scattered Clouds,0,2013-09-12 03:15:00
11:37 PM,71.6,69.8,94,30.13,4.0,SSE,3.5,-,N/A,,Mostly Cloudy,150,2013-09-12 03:37:00
11:55 PM,71.6,69.8,94,30.13,5.0,Calm,Calm,-,N/A,,Mostly Cloudy,0,2013-09-12 03:55:00